West Glenville, New York
Current Conditions -  °F | °C
As of 10:15 AM on Friday 31 Oct 2014 (Local Time) from KNY0 Reporting Station
Broken Clouds Broken Clouds  
Wind Chill: 36°   Ceiling: 100
Heat Index: 36°   Visibility: 10mi
Dew Point: 35°   Wind: 0mph
Humidity: 98%   Direction: NA
Pressure: 30.04"   Gusts: NA
Location:  42.9741°N, 74.1271°W
Report Text: KNY0 311415Z AUTO 00000KT 10SM BKN001 02/02 A3004 RMK AO2 T00210018
Loading
Personal Weather Stations






























Interactive Weather Map
Tropical Storm Tracking
New forecast layout! Learn more

10-Day Weather Forecast

Advertisements
Track Severe Weather on mobile